createdAt,value
2023-04-16T00:01:17.232Z,58.67
2023-04-16T00:03:44.569Z,58.58
2023-04-16T00:06:12.693Z,58.11
2023-04-16T00:08:41.131Z,57.97
2023-04-16T00:11:08.419Z,57.62
2023-04-16T00:13:35.796Z,57.59
2023-04-16T00:16:03.107Z,58.36
2023-04-16T00:18:30.392Z,58.05
2023-04-16T00:20:57.568Z,57.96
2023-04-16T00:23:25.569Z,58.84
2023-04-16T00:25:53.928Z,58.73
2023-04-16T00:28:21.267Z,59.53
2023-04-16T00:30:48.455Z,59.65
2023-04-16T00:33:17.235Z,59.69
2023-04-16T00:35:48.091Z,59.48
2023-04-16T00:38:15.357Z,60.28
2023-04-16T00:40:42.528Z,60.42
2023-04-16T00:43:09.771Z,60.41
2023-04-16T00:45:37.324Z,60.88
2023-04-16T00:48:06.115Z,60.52
2023-04-16T00:50:34.116Z,60.42
2023-04-16T00:53:02.405Z,59.85
2023-04-16T00:55:29.935Z,59.68
2023-04-16T00:57:56.988Z,59.36
2023-04-16T01:00:24.357Z,59.88
2023-04-16T01:02:51.701Z,59.83
2023-04-16T01:05:19.790Z,59.48
2023-04-16T01:07:46.986Z,59.70
2023-04-16T01:10:14.171Z,59.35
2023-04-16T01:12:41.195Z,59.07
2023-04-16T01:15:08.861Z,59.79
2023-04-16T01:17:36.098Z,59.34
2023-04-16T01:20:03.399Z,59.05
2023-04-16T01:22:30.699Z,59.28
2023-04-16T01:24:57.709Z,59.06
2023-04-16T01:27:24.981Z,58.79
2023-04-16T01:29:52.262Z,59.13
2023-04-16T01:32:25.433Z,59.08
2023-04-16T01:34:52.523Z,59.16
2023-04-16T01:37:19.733Z,59.70
2023-04-16T01:39:47.004Z,59.30
2023-04-16T01:42:14.134Z,59.78
2023-04-16T01:44:41.205Z,60.24
2023-04-16T01:47:08.830Z,60.26
2023-04-16T01:49:36.592Z,60.27
2023-04-16T01:52:03.815Z,60.48
2023-04-16T01:54:31.038Z,60.83
2023-04-16T01:56:59.284Z,60.83
2023-04-16T01:59:26.455Z,61.39
2023-04-16T02:01:54.291Z,62.05
2023-04-16T02:04:21.715Z,62.22
2023-04-16T02:06:49.033Z,62.12
2023-04-16T02:09:16.309Z,62.93
2023-04-16T02:11:43.504Z,63.79
2023-04-16T02:14:10.871Z,64.52
2023-04-16T02:16:38.228Z,64.72
2023-04-16T02:19:31.551Z,64.80
2023-04-16T02:21:58.884Z,65.04
2023-04-16T02:24:26.207Z,65.20
2023-04-16T02:26:54.332Z,65.99
2023-04-16T02:29:22.743Z,66.16
2023-04-16T02:32:00.036Z,65.69
2023-04-16T02:34:28.628Z,65.55
2023-04-16T02:36:56.163Z,64.70
2023-04-16T02:39:23.312Z,64.33
2023-04-16T02:41:50.734Z,64.75
2023-04-16T02:44:17.934Z,64.70
2023-04-16T02:46:45.613Z,64.92
2023-04-16T02:49:12.989Z,65.71
2023-04-16T02:51:40.169Z,66.39
2023-04-16T02:54:07.562Z,66.43
2023-04-16T02:56:34.618Z,68.13
2023-04-16T02:59:01.712Z,66.92
2023-04-16T03:01:29.183Z,67.03
2023-04-16T03:03:56.865Z,66.62
2023-04-16T03:06:24.087Z,67.26
2023-04-16T03:08:51.281Z,67.67
2023-04-16T03:11:18.482Z,67.63
2023-04-16T03:13:46.119Z,68.17
2023-04-16T03:16:13.283Z,67.72
2023-04-16T03:18:40.574Z,67.28
2023-04-16T03:21:07.688Z,67.04
2023-04-16T03:23:35.943Z,67.02
2023-04-16T03:26:03.158Z,67.37
2023-04-16T03:28:30.508Z,67.02
2023-04-16T03:30:58.744Z,66.68
2023-04-16T03:33:26.397Z,66.76
2023-04-16T03:35:58.085Z,66.87
2023-04-16T03:38:27.440Z,68.85
2023-04-16T03:40:57.015Z,71.61
2023-04-16T03:43:24.186Z,72.94
2023-04-16T03:45:51.503Z,72.79
2023-04-16T03:48:21.943Z,74.81
2023-04-16T03:50:49.234Z,74.16
2023-04-16T03:53:19.026Z,74.27
2023-04-16T03:55:50.510Z,74.17
2023-04-16T03:58:18.196Z,74.28
2023-04-16T04:00:45.372Z,77.14
2023-04-16T04:03:17.342Z,78.77
2023-04-16T04:05:46.922Z,78.32
2023-04-16T04:08:16.953Z,78.48
2023-04-16T04:10:45.997Z,78.21
2023-04-16T04:13:14.516Z,79.23
2023-04-16T04:15:41.720Z,79.09
2023-04-16T04:18:08.947Z,78.65
2023-04-16T04:20:40.017Z,78.14
2023-04-16T04:23:07.960Z,78.11
2023-04-16T04:25:36.001Z,77.84
2023-04-16T04:28:03.291Z,77.47
2023-04-16T04:30:30.763Z,77.15
2023-04-16T04:32:58.079Z,76.51
2023-04-16T04:35:25.354Z,75.92
2023-04-16T04:37:53.181Z,76.65
2023-04-16T04:40:21.196Z,77.47
2023-04-16T04:42:48.494Z,78.93
2023-04-16T04:45:16.239Z,80.25
2023-04-16T04:47:43.528Z,79.32
2023-04-16T04:50:11.327Z,80.69
2023-04-16T04:52:38.866Z,81.83
2023-04-16T04:55:07.722Z,82.86
2023-04-16T04:57:35.685Z,82.73
2023-04-16T05:00:04.478Z,83.05
2023-04-16T05:02:40.092Z,83.57
2023-04-16T05:05:07.750Z,83.70
2023-04-16T05:07:34.981Z,82.99
2023-04-16T05:10:02.071Z,85.21
2023-04-16T05:12:29.248Z,84.86
2023-04-16T05:14:56.421Z,85.61
2023-04-16T05:17:23.636Z,86.19
2023-04-16T05:19:51.139Z,86.92
2023-04-16T05:22:19.151Z,87.13
2023-04-16T05:24:46.386Z,87.45
2023-04-16T05:27:13.499Z,88.02
2023-04-16T05:29:40.784Z,88.75
2023-04-16T05:32:08.060Z,89.47
2023-04-16T05:34:35.154Z,90.37
2023-04-16T05:37:02.368Z,91.13
2023-04-16T05:39:29.442Z,91.84
2023-04-16T05:41:56.541Z,91.52
2023-04-16T05:44:23.802Z,91.07
2023-04-16T05:46:50.936Z,91.37
2023-04-16T05:49:21.681Z,93.45
2023-04-16T05:51:50.711Z,94.25
2023-04-16T05:54:18.040Z,94.85
2023-04-16T05:56:45.263Z,95.61
2023-04-16T05:59:12.534Z,96.51
2023-04-16T06:01:39.712Z,96.10
2023-04-16T06:04:06.905Z,95.30
2023-04-16T06:06:34.062Z,95.15
2023-04-16T06:09:01.218Z,94.73
2023-04-16T06:11:30.113Z,95.58
2023-04-16T06:13:57.282Z,95.90
2023-04-16T06:16:24.481Z,95.86
2023-04-16T06:18:51.723Z,96.71
2023-04-16T06:21:18.922Z,96.53
2023-04-16T06:23:46.190Z,95.93
2023-04-16T06:26:13.393Z,95.56
2023-04-16T06:28:40.539Z,96.54
2023-04-16T06:31:07.793Z,97.04
2023-04-16T06:33:35.210Z,96.90
2023-04-16T06:36:02.368Z,97.80
2023-04-16T06:38:29.524Z,97.81
2023-04-16T06:40:56.827Z,97.84
2023-04-16T06:43:24.071Z,97.93
2023-04-16T06:45:51.399Z,97.34
2023-04-16T06:48:18.670Z,96.56
2023-04-16T06:50:46.092Z,96.14
2023-04-16T06:53:13.312Z,94.84
2023-04-16T06:55:40.395Z,94.32
2023-04-16T06:58:07.548Z,93.01
2023-04-16T07:00:34.769Z,92.77
2023-04-16T07:03:02.369Z,92.65
2023-04-16T07:05:29.722Z,92.48
2023-04-16T07:07:57.794Z,92.93
2023-04-16T07:10:25.594Z,93.00
2023-04-16T07:12:52.949Z,92.75
2023-04-16T07:15:20.150Z,92.86
2023-04-16T07:17:47.392Z,91.95
2023-04-16T07:20:14.728Z,90.91
2023-04-16T07:22:41.886Z,89.88
2023-04-16T07:25:09.841Z,89.25
2023-04-16T07:27:36.921Z,88.44
2023-04-16T07:30:04.474Z,87.76
2023-04-16T07:32:31.785Z,87.47
2023-04-16T07:34:58.931Z,87.71
2023-04-16T07:37:26.092Z,89.04
2023-04-16T07:39:54.114Z,88.38
2023-04-16T07:42:22.826Z,89.02
2023-04-16T07:44:49.914Z,89.32
2023-04-16T07:47:17.116Z,88.80
2023-04-16T07:49:44.270Z,89.31
2023-04-16T07:52:12.133Z,91.21
2023-04-16T07:54:39.394Z,92.37
2023-04-16T07:57:06.421Z,93.20
2023-04-16T07:59:33.622Z,95.11
2023-04-16T08:02:00.880Z,95.40
2023-04-16T08:04:28.263Z,97.28
2023-04-16T08:06:55.900Z,98.13
2023-04-16T08:09:24.286Z,98.45
2023-04-16T08:11:51.481Z,98.46
2023-04-16T08:14:18.632Z,97.79
2023-04-16T08:16:45.985Z,96.47
2023-04-16T08:19:13.340Z,96.06
2023-04-16T08:21:40.798Z,94.98
2023-04-16T08:24:08.242Z,96.06
2023-04-16T08:26:36.086Z,97.53
2023-04-16T08:29:03.289Z,98.72
2023-04-16T08:31:30.674Z,100.00
2023-04-16T08:33:57.948Z,100.00
2023-04-16T08:36:25.148Z,100.00
2023-04-16T08:38:52.471Z,100.00
2023-04-16T08:41:22.713Z,100.00
2023-04-16T08:43:54.680Z,99.14
2023-04-16T08:46:25.256Z,99.08
2023-04-16T08:48:56.312Z,100.00
2023-04-16T08:51:24.327Z,100.00
2023-04-16T08:54:03.027Z,100.00
2023-04-16T08:56:32.200Z,100.00
2023-04-16T08:59:02.115Z,100.00
2023-04-16T09:01:33.962Z,100.00
2023-04-16T09:04:01.849Z,100.00
2023-04-16T09:06:31.913Z,100.00
2023-04-16T09:09:01.848Z,100.00
2023-04-16T09:11:29.790Z,100.00
2023-04-16T09:13:58.019Z,100.00
2023-04-16T09:16:31.539Z,100.00
2023-04-16T09:18:59.203Z,100.00
2023-04-16T09:21:26.576Z,100.00
2023-04-16T09:23:54.208Z,100.00
2023-04-16T09:26:22.026Z,100.00
2023-04-16T09:28:51.438Z,100.00
2023-04-16T09:31:20.226Z,100.00
2023-04-16T09:34:08.709Z,100.00
2023-04-16T09:36:36.986Z,100.00
2023-04-16T09:39:04.368Z,100.00
2023-04-16T09:41:36.117Z,100.00
2023-04-16T09:44:05.453Z,100.00
2023-04-16T09:46:43.129Z,100.00
2023-04-16T09:49:18.750Z,100.00
2023-04-16T09:51:49.815Z,100.00
2023-04-16T09:54:16.882Z,100.00
2023-04-16T09:56:46.354Z,100.00
2023-04-16T09:59:21.592Z,100.00
2023-04-16T10:01:50.152Z,100.00
2023-04-16T10:04:17.675Z,99.42
2023-04-16T10:06:46.997Z,99.11
2023-04-16T10:09:14.188Z,98.31
2023-04-16T10:11:41.492Z,99.91
2023-04-16T10:14:09.408Z,100.00
2023-04-16T10:16:37.172Z,100.00
2023-04-16T10:19:05.055Z,100.00
2023-04-16T10:21:34.457Z,100.00
2023-04-16T10:24:03.001Z,100.00
2023-04-16T10:26:31.344Z,100.00
2023-04-16T10:28:58.997Z,100.00
2023-04-16T10:31:27.541Z,100.00
2023-04-16T10:33:56.340Z,100.00
2023-04-16T10:36:24.931Z,100.00
2023-04-16T10:38:53.263Z,100.00
2023-04-16T10:41:21.284Z,99.27
2023-04-16T10:43:51.937Z,98.96
2023-04-16T10:46:31.047Z,96.18
2023-04-16T10:49:12.707Z,92.70
2023-04-16T10:51:39.918Z,91.18
2023-04-16T10:54:12.734Z,90.03
2023-04-16T10:56:40.159Z,88.96
2023-04-16T10:59:08.107Z,89.64
2023-04-16T11:01:37.215Z,87.07
2023-04-16T11:04:19.952Z,85.47
2023-04-16T11:07:15.041Z,86.72
2023-04-16T11:10:13.057Z,85.94
2023-04-16T11:12:42.225Z,85.79
2023-04-16T11:15:12.634Z,85.56
2023-04-16T11:17:51.014Z,87.00
2023-04-16T11:20:21.106Z,84.36
2023-04-16T11:22:49.974Z,82.41
2023-04-16T11:25:31.791Z,80.86
2023-04-16T11:27:59.321Z,76.06
2023-04-16T11:30:37.253Z,75.25
2023-04-16T11:33:13.554Z,73.07
2023-04-16T11:35:41.532Z,72.67
2023-04-16T11:38:08.959Z,71.15
2023-04-16T11:40:36.521Z,71.07
2023-04-16T11:43:24.103Z,68.27
2023-04-16T11:46:07.471Z,69.02
2023-04-16T11:48:51.285Z,68.86
2023-04-16T11:51:19.780Z,69.21
2023-04-16T11:53:54.483Z,71.03
2023-04-16T11:56:31.648Z,70.20
2023-04-16T11:59:19.113Z,69.83
2023-04-16T12:01:51.891Z,71.99
2023-04-16T12:04:22.760Z,70.59
2023-04-16T12:07:10.127Z,71.87
2023-04-16T12:09:40.428Z,72.13
2023-04-16T12:12:32.110Z,72.32
2023-04-16T12:15:02.071Z,73.70
2023-04-16T12:17:30.276Z,72.05
2023-04-16T12:20:00.813Z,72.47
2023-04-16T12:22:32.653Z,73.23
2023-04-16T12:25:03.803Z,72.52
2023-04-16T12:27:53.677Z,72.36
2023-04-16T12:30:23.266Z,73.29
2023-04-16T12:32:52.785Z,72.41
2023-04-16T12:35:32.094Z,71.96
2023-04-16T12:37:59.835Z,71.01
2023-04-16T12:40:27.781Z,72.15
2023-04-16T12:42:55.149Z,71.27
2023-04-16T12:45:22.549Z,70.60
2023-04-16T12:47:50.703Z,70.39
2023-04-16T12:50:18.606Z,70.82
2023-04-16T12:52:46.050Z,70.34
2023-04-16T12:55:14.247Z,68.98
2023-04-16T12:57:41.600Z,71.47
2023-04-16T13:00:10.932Z,71.04
2023-04-16T13:02:38.349Z,70.83
2023-04-16T13:05:05.960Z,70.20
2023-04-16T13:07:34.151Z,68.93
2023-04-16T13:10:01.569Z,69.30
2023-04-16T13:12:28.740Z,69.84
2023-04-16T13:14:56.607Z,70.33
2023-04-16T13:17:24.029Z,70.90
2023-04-16T13:19:51.193Z,71.42
2023-04-16T13:22:18.313Z,72.52
2023-04-16T13:24:46.195Z,73.15
2023-04-16T13:27:15.282Z,72.34
2023-04-16T13:29:42.531Z,71.97
2023-04-16T13:32:10.015Z,71.23
2023-04-16T13:34:37.486Z,70.27
2023-04-16T13:37:04.740Z,69.52
2023-04-16T13:39:31.850Z,69.75
2023-04-16T13:41:58.991Z,69.50
2023-04-16T13:44:26.197Z,70.18
2023-04-16T13:46:53.592Z,71.34
2023-04-16T13:49:20.832Z,74.93
2023-04-16T13:51:48.101Z,74.19
2023-04-16T13:54:15.235Z,73.87
2023-04-16T13:56:43.168Z,71.69
2023-04-16T13:59:11.345Z,70.65
2023-04-16T14:01:39.777Z,69.36
2023-04-16T14:04:07.675Z,69.97
2023-04-16T14:06:35.019Z,71.12
2023-04-16T14:09:02.448Z,68.82
2023-04-16T14:11:29.787Z,68.30
2023-04-16T14:13:56.995Z,69.15
2023-04-16T14:16:24.375Z,70.77
2023-04-16T14:18:52.098Z,71.54
2023-04-16T14:21:19.363Z,72.61
2023-04-16T14:23:48.161Z,72.49
2023-04-16T14:26:15.610Z,72.56
2023-04-16T14:28:42.879Z,70.95
2023-04-16T14:31:10.094Z,69.78
2023-04-16T14:33:37.174Z,71.13
2023-04-16T14:36:04.637Z,72.32
2023-04-16T14:38:32.117Z,73.55
2023-04-16T14:41:00.630Z,74.08
2023-04-16T14:43:28.140Z,74.06
2023-04-16T14:45:59.122Z,74.61
2023-04-16T14:48:26.358Z,75.05
2023-04-16T14:50:54.074Z,74.11
2023-04-16T14:53:23.082Z,74.02
2023-04-16T14:55:50.615Z,74.27
2023-04-16T14:58:17.834Z,74.75
2023-04-16T15:00:45.009Z,76.15
2023-04-16T15:03:12.323Z,76.54
2023-04-16T15:05:39.607Z,76.70
2023-04-16T15:08:07.411Z,77.02
2023-04-16T15:10:35.205Z,75.80
2023-04-16T15:13:02.336Z,76.82
2023-04-16T15:15:29.524Z,75.87
2023-04-16T15:17:57.822Z,75.78
2023-04-16T15:20:25.049Z,75.34
2023-04-16T15:22:53.676Z,76.33
2023-04-16T15:25:21.076Z,75.86
2023-04-16T15:27:48.233Z,75.83
2023-04-16T15:30:15.820Z,75.64
2023-04-16T15:32:44.789Z,75.42
2023-04-16T15:35:13.495Z,74.72
2023-04-16T15:37:41.054Z,74.94
2023-04-16T15:40:08.684Z,74.32
2023-04-16T15:42:35.746Z,75.35
2023-04-16T15:45:02.963Z,76.29
2023-04-16T15:47:30.347Z,75.18
2023-04-16T15:49:57.539Z,75.78
2023-04-16T15:52:24.643Z,74.23
2023-04-16T15:54:51.870Z,73.85
2023-04-16T15:57:19.278Z,73.24
2023-04-16T15:59:59.518Z,73.70
2023-04-16T16:02:34.188Z,73.33
2023-04-16T16:05:01.617Z,73.82
2023-04-16T16:07:28.898Z,75.44
2023-04-16T16:09:56.442Z,75.67
2023-04-16T16:12:23.577Z,76.33
2023-04-16T16:14:51.030Z,76.89
2023-04-16T16:17:20.366Z,76.88
2023-04-16T16:19:47.646Z,76.69
2023-04-16T16:22:16.029Z,76.94
2023-04-16T16:24:43.235Z,77.37
2023-04-16T16:27:28.938Z,77.34
2023-04-16T16:29:56.074Z,77.14
2023-04-16T16:32:23.284Z,76.56
2023-04-16T16:34:50.506Z,75.84
2023-04-16T16:37:17.677Z,75.73
2023-04-16T16:39:44.847Z,75.11
2023-04-16T16:42:12.073Z,75.75
2023-04-16T16:44:39.324Z,74.59
2023-04-16T16:47:06.680Z,75.92
2023-04-16T16:49:33.945Z,75.23
2023-04-16T16:52:01.095Z,75.42
2023-04-16T16:54:28.443Z,75.54
2023-04-16T16:56:55.662Z,75.40
2023-04-16T16:59:22.753Z,74.80
2023-04-16T17:01:49.969Z,75.02
2023-04-16T17:04:20.055Z,74.85
2023-04-16T17:06:47.627Z,74.69
2023-04-16T17:09:14.937Z,74.91
2023-04-16T17:11:42.076Z,75.29
2023-04-16T17:14:09.274Z,74.85
2023-04-16T17:16:36.742Z,75.08
2023-04-16T17:19:04.017Z,75.51
2023-04-16T17:21:33.437Z,76.08
2023-04-16T17:24:00.650Z,75.50
2023-04-16T17:26:27.795Z,75.67
2023-04-16T17:28:56.749Z,75.97
2023-04-16T17:31:25.605Z,76.17
2023-04-16T17:33:54.103Z,76.63
2023-04-16T17:36:23.233Z,77.08
2023-04-16T17:38:50.723Z,77.33
2023-04-16T17:41:18.139Z,77.53
2023-04-16T17:43:49.801Z,78.79
2023-04-16T17:46:17.210Z,80.31
2023-04-16T17:48:44.434Z,78.67
2023-04-16T17:51:12.257Z,78.34
2023-04-16T17:53:39.644Z,78.36
2023-04-16T17:56:06.922Z,78.52
2023-04-16T17:58:35.412Z,79.20
2023-04-16T18:01:03.516Z,80.36
2023-04-16T18:03:32.129Z,80.19
2023-04-16T18:05:59.585Z,81.67
2023-04-16T18:08:27.520Z,83.86
2023-04-16T18:10:55.656Z,83.98
2023-04-16T18:13:25.997Z,84.06
2023-04-16T18:15:53.878Z,84.80
2023-04-16T18:18:21.499Z,85.30
2023-04-16T18:20:48.849Z,86.02
2023-04-16T18:23:16.096Z,86.76
2023-04-16T18:25:43.306Z,87.90
2023-04-16T18:28:13.674Z,88.30
2023-04-16T18:30:41.380Z,89.96
2023-04-16T18:33:34.420Z,92.49
2023-04-16T18:35:55.811Z,100.00
2023-04-16T18:38:22.922Z,100.00
2023-04-16T18:40:50.003Z,100.00
2023-04-16T18:43:17.134Z,100.00
2023-04-16T18:45:44.186Z,100.00
2023-04-16T18:48:11.536Z,100.00
2023-04-16T18:50:38.666Z,100.00
2023-04-16T18:53:05.907Z,100.00
2023-04-16T18:55:33.111Z,100.00
2023-04-16T18:58:00.237Z,100.00
2023-04-16T19:00:27.535Z,100.00
2023-04-16T19:02:54.832Z,100.00
2023-04-16T19:05:23.132Z,100.00
2023-04-16T19:07:50.496Z,100.00
2023-04-16T19:10:17.750Z,100.00
2023-04-16T19:12:44.867Z,100.00
2023-04-16T19:15:12.018Z,100.00
2023-04-16T19:17:39.928Z,100.00
2023-04-16T19:20:11.625Z,100.00
2023-04-16T19:22:38.862Z,100.00
2023-04-16T19:25:07.312Z,100.00
2023-04-16T19:27:35.000Z,100.00
2023-04-16T19:30:03.182Z,100.00
2023-04-16T19:32:30.861Z,100.00
2023-04-16T19:34:58.080Z,100.00
2023-04-16T19:37:25.219Z,100.00
2023-04-16T19:39:52.348Z,100.00
2023-04-16T19:42:19.478Z,100.00
2023-04-16T19:44:46.710Z,100.00
2023-04-16T19:47:14.015Z,100.00
2023-04-16T19:49:43.625Z,100.00
2023-04-16T19:52:10.871Z,100.00
2023-04-16T19:54:37.983Z,100.00
2023-04-16T19:57:05.169Z,100.00
2023-04-16T19:59:32.380Z,100.00
2023-04-16T20:01:59.605Z,100.00
2023-04-16T20:04:27.362Z,100.00
2023-04-16T20:06:54.644Z,100.00
2023-04-16T20:09:21.783Z,100.00
2023-04-16T20:11:49.203Z,100.00
2023-04-16T20:14:17.325Z,100.00
2023-04-16T20:17:03.561Z,100.00
2023-04-16T20:19:33.733Z,100.00
2023-04-16T20:22:00.899Z,100.00
2023-04-16T20:24:31.094Z,100.00
2023-04-16T20:26:58.208Z,100.00
2023-04-16T20:29:25.404Z,100.00
2023-04-16T20:31:52.748Z,100.00
2023-04-16T20:34:19.942Z,100.00
2023-04-16T20:36:47.012Z,100.00
2023-04-16T20:39:14.220Z,100.00
2023-04-16T20:41:44.317Z,100.00
2023-04-16T20:44:18.233Z,100.00
2023-04-16T20:46:49.901Z,100.00
2023-04-16T20:49:18.571Z,100.00
2023-04-16T20:51:45.808Z,100.00
2023-04-16T20:54:13.075Z,100.00
2023-04-16T20:56:40.270Z,100.00
2023-04-16T20:59:07.308Z,100.00
2023-04-16T21:01:34.642Z,100.00
2023-04-16T21:04:02.063Z,100.00
2023-04-16T21:06:32.935Z,100.00
2023-04-16T21:09:00.070Z,100.00
2023-04-16T21:11:29.374Z,100.00
2023-04-16T21:13:56.558Z,100.00
2023-04-16T21:16:23.646Z,100.00
2023-04-16T21:18:50.837Z,100.00
2023-04-16T21:21:19.168Z,100.00
2023-04-16T21:23:46.182Z,100.00
2023-04-16T21:26:13.320Z,100.00
2023-04-16T21:28:40.487Z,100.00
2023-04-16T21:31:07.557Z,100.00
2023-04-16T21:33:34.752Z,100.00
2023-04-16T21:36:01.971Z,100.00
2023-04-16T21:38:29.010Z,100.00
2023-04-16T21:40:56.915Z,100.00
2023-04-16T21:43:24.291Z,100.00
2023-04-16T21:45:54.922Z,100.00
2023-04-16T21:48:22.687Z,100.00
2023-04-16T21:50:59.984Z,100.00
2023-04-16T21:53:28.180Z,100.00
2023-04-16T21:55:55.303Z,100.00
2023-04-16T21:58:22.330Z,100.00
2023-04-16T22:00:49.524Z,100.00
2023-04-16T22:03:17.431Z,100.00
2023-04-16T22:05:45.974Z,100.00
2023-04-16T22:08:24.214Z,100.00
2023-04-16T22:10:51.857Z,100.00
2023-04-16T22:13:19.028Z,100.00
2023-04-16T22:15:46.243Z,100.00
2023-04-16T22:18:13.254Z,100.00
2023-04-16T22:20:40.452Z,100.00
2023-04-16T22:23:07.482Z,100.00
2023-04-16T22:25:34.569Z,100.00
2023-04-16T22:28:01.800Z,100.00
2023-04-16T22:30:28.945Z,100.00
2023-04-16T22:32:56.038Z,100.00
2023-04-16T22:35:23.128Z,100.00
2023-04-16T22:37:50.143Z,100.00
2023-04-16T22:40:17.306Z,100.00
2023-04-16T22:42:44.448Z,100.00
2023-04-16T22:45:12.750Z,100.00
2023-04-16T22:47:39.840Z,100.00
2023-04-16T22:50:07.768Z,100.00
2023-04-16T22:52:34.947Z,100.00
2023-04-16T22:55:02.045Z,100.00
2023-04-16T22:57:29.118Z,100.00
2023-04-16T22:59:56.417Z,100.00
2023-04-16T23:02:23.868Z,100.00
2023-04-16T23:04:51.076Z,100.00
2023-04-16T23:07:18.286Z,100.00
2023-04-16T23:09:45.368Z,100.00
2023-04-16T23:12:12.502Z,100.00
2023-04-16T23:14:39.701Z,100.00
2023-04-16T23:17:06.908Z,100.00
2023-04-16T23:19:34.058Z,100.00
2023-04-16T23:22:01.067Z,100.00
2023-04-16T23:24:28.210Z,100.00
2023-04-16T23:26:56.136Z,100.00
2023-04-16T23:29:23.884Z,100.00
2023-04-16T23:31:51.180Z,100.00
2023-04-16T23:34:18.304Z,100.00
2023-04-16T23:36:46.090Z,100.00
2023-04-16T23:39:13.400Z,100.00
2023-04-16T23:41:40.682Z,100.00
2023-04-16T23:44:07.833Z,100.00
2023-04-16T23:46:35.124Z,100.00
2023-04-16T23:49:02.293Z,100.00
2023-04-16T23:51:29.298Z,100.00
2023-04-16T23:53:56.413Z,100.00
2023-04-16T23:56:23.520Z,100.00
2023-04-16T23:58:50.580Z,100.00
